Xl Ranch Indian Reservation, California
Current Conditions -  °F | °C
As of 9:55 PM on Friday 24 Oct 2014 (Local Time) from KAAT Reporting Station
Clear Clear  
Wind Chill: 56°   Ceiling: Unl
Heat Index: 56°   Visibility: 10mi
Dew Point: 30°   Wind: 8mph
Humidity: 37%   Direction: 130°SE
Pressure: 29.94"   Gusts: NA
Location:  41.4836°N, 120.55°W
Report Text: KAAT 250455Z AUTO 13007KT 10SM CLR 13/M01 A2994 RMK AO2 SLP114 T01331011
Loading
Personal Weather Stations






























Interactive Weather Map
Tropical Storm Tracking
New forecast layout! Learn more

10-Day Weather Forecast

Advertisements
Track Severe Weather on mobile